Time,TemperatureF,DewpointF,PressureIn,WindDirection,WindDirectionDegrees,WindSpeedMPH,WindSpeedGustMPH,Humidity,HourlyPrecipIn,Conditions,Clouds,dailyrainin,SoftwareType,DateUTC
2013-03-25 00:08:00,31.8,27.0,29.66,WNW,294,0.0,-999.0,81,-99.99,,,0.00,weatherlink.com 1.10,2013-03-25 04:08:00,
2013-03-25 00:23:00,31.5,27.0,29.66,WNW,294,0.0,-999.0,82,-99.99,,,0.00,weatherlink.com 1.10,2013-03-25 04:23:00,
2013-03-25 00:38:00,31.3,27.0,29.66,WNW,294,0.0,-999.0,83,-99.99,,,0.00,weatherlink.com 1.10,2013-03-25 04:38:00,
2013-03-25 00:53:00,30.9,26.0,29.66,WNW,294,0.0,-999.0,83,-99.99,,,0.00,weatherlink.com 1.10,2013-03-25 04:53:00,
2013-03-25 01:08:00,30.6,26.0,29.66,WNW,294,0.0,-999.0,84,-99.99,,,0.00,weatherlink.com 1.10,2013-03-25 05:08:00,
2013-03-25 01:23:00,30.3,26.0,29.65,WNW,294,0.0,-999.0,84,-99.99,,,0.00,weatherlink.com 1.10,2013-03-25 05:23:00,
2013-03-25 01:38:00,30.1,26.0,29.65,WNW,294,0.0,-999.0,84,-99.99,,,0.00,weatherlink.com 1.10,2013-03-25 05:38:00,
2013-03-25 01:53:00,30.0,26.0,29.65,WNW,294,0.0,-999.0,85,-99.99,,,0.00,weatherlink.com 1.10,2013-03-25 05:53:00,
2013-03-25 02:08:00,29.7,26.0,29.65,WNW,294,0.0,-999.0,85,-99.99,,,0.00,weatherlink.com 1.10,2013-03-25 06:08:00,
2013-03-25 02:23:00,29.7,26.0,29.65,WNW,294,0.0,-999.0,86,-99.99,,,0.00,weatherlink.com 1.10,2013-03-25 06:23:00,
2013-03-25 02:38:00,29.7,26.0,29.64,WNW,294,0.0,-999.0,86,-99.99,,,0.00,weatherlink.com 1.10,2013-03-25 06:38:00,
2013-03-25 02:53:00,29.8,26.0,29.64,WNW,294,0.0,-999.0,86,-99.99,,,0.00,weatherlink.com 1.10,2013-03-25 06:53:00,
2013-03-25 03:08:00,30.0,26.0,29.63,WNW,294,0.0,-999.0,86,-99.99,,,0.00,weatherlink.com 1.10,2013-03-25 07:08:00,
2013-03-25 03:23:00,30.1,26.0,29.63,WNW,300,0.0,-999.0,86,-99.99,,,0.00,weatherlink.com 1.10,2013-03-25 07:23:00,
2013-03-25 03:38:00,30.3,27.0,29.63,WNW,301,0.0,-999.0,86,-99.99,,,0.00,weatherlink.com 1.10,2013-03-25 07:38:00,
2013-03-25 03:53:00,30.7,27.0,29.62,NW,305,0.0,-999.0,85,-99.99,,,0.00,weatherlink.com 1.10,2013-03-25 07:53:00,
2013-03-25 04:08:00,31.3,27.0,29.61,NE,40,0.0,-999.0,84,-99.99,,,0.00,weatherlink.com 1.10,2013-03-25 08:08:00,
2013-03-25 04:23:00,31.8,27.0,29.61,NE,41,0.0,-999.0,81,-99.99,,,0.00,weatherlink.com 1.10,2013-03-25 08:23:00,
2013-03-25 04:38:00,32.1,26.0,29.60,NE,41,0.0,-999.0,79,-99.99,,,0.00,weatherlink.com 1.10,2013-03-25 08:38:00,
2013-03-25 04:53:00,32.5,26.0,29.60,NE,54,1.0,-999.0,77,-99.99,,,0.00,weatherlink.com 1.10,2013-03-25 08:53:00,
2013-03-25 05:08:00,32.9,26.0,29.60,NE,54,0.0,-999.0,77,-99.99,,,0.00,weatherlink.com 1.10,2013-03-25 09:08:00,
2013-03-25 05:23:00,33.1,27.0,29.60,ENE,68,0.0,-999.0,77,-99.99,,,0.00,weatherlink.com 1.10,2013-03-25 09:23:00,
2013-03-25 05:38:00,32.9,27.0,29.59,ENE,68,0.0,-999.0,78,-99.99,,,0.00,weatherlink.com 1.10,2013-03-25 09:38:00,
2013-03-25 05:53:00,32.8,27.0,29.59,ENE,68,0.0,-999.0,79,-99.99,,,0.00,weatherlink.com 1.10,2013-03-25 09:53:00,
2013-03-25 06:08:00,33.1,28.0,29.59,ENE,64,0.0,-999.0,80,-99.99,,,0.00,weatherlink.com 1.10,2013-03-25 10:08:00,
2013-03-25 06:23:00,33.4,28.0,29.59,ENE,77,0.0,-999.0,81,-99.99,,,0.00,weatherlink.com 1.10,2013-03-25 10:23:00,
2013-03-25 06:38:00,33.4,29.0,29.58,ENE,77,0.0,-999.0,82,-99.99,,,0.00,weatherlink.com 1.10,2013-03-25 10:38:00,
2013-03-25 06:53:00,33.5,29.0,29.59,ENE,77,0.0,-999.0,82,-99.99,,,0.00,weatherlink.com 1.10,2013-03-25 10:53:00,
2013-03-25 07:08:00,33.4,29.0,29.58,ENE,77,0.0,-999.0,83,-99.99,,,0.00,weatherlink.com 1.10,2013-03-25 11:08:00,
2013-03-25 07:23:00,33.4,29.0,29.59,ENE,77,0.0,-999.0,84,-99.99,,,0.00,weatherlink.com 1.10,2013-03-25 11:23:00,
2013-03-25 07:38:00,33.7,29.0,29.58,ENE,77,0.0,-999.0,84,-99.99,,,0.00,weatherlink.com 1.10,2013-03-25 11:38:00,
2013-03-25 07:53:00,35.2,31.0,29.58,ENE,74,0.0,-999.0,85,-99.99,,,0.00,weatherlink.com 1.10,2013-03-25 11:53:00,
2013-03-25 08:08:00,36.8,32.0,29.59,ENE,75,0.0,-999.0,83,-99.99,,,0.00,weatherlink.com 1.10,2013-03-25 12:08:00,
2013-03-25 08:23:00,38.3,33.0,29.59,East,95,5.0,-999.0,80,-99.99,,,0.00,weatherlink.com 1.10,2013-03-25 12:23:00,
2013-03-25 08:38:00,39.5,33.0,29.58,East,88,7.0,-999.0,78,-99.99,,,0.00,weatherlink.com 1.10,2013-03-25 12:38:00,
2013-03-25 08:53:00,40.8,33.0,29.58,SE,146,6.0,-999.0,74,-99.99,,,0.00,weatherlink.com 1.10,2013-03-25 12:53:00,
2013-03-25 09:08:00,41.5,32.0,29.57,SSE,150,7.0,-999.0,70,-99.99,,,0.00,weatherlink.com 1.10,2013-03-25 13:08:00,
2013-03-25 09:23:00,41.5,32.0,29.57,ESE,122,2.0,-999.0,70,-99.99,,,0.00,weatherlink.com 1.10,2013-03-25 13:23:00,
2013-03-25 09:38:00,41.9,32.0,29.57,SSE,156,6.0,-999.0,68,-99.99,,,0.00,weatherlink.com 1.10,2013-03-25 13:38:00,
2013-03-25 09:54:00,41.9,31.0,29.56,SE,144,5.0,-999.0,66,-99.99,,,0.00,weatherlink.com 1.10,2013-03-25 13:54:00,
2013-03-25 10:09:00,41.8,30.0,29.55,ESE,113,5.0,-999.0,64,-99.99,,,0.00,weatherlink.com 1.10,2013-03-25 14:09:00,
2013-03-25 10:24:00,41.9,30.0,29.55,East,99,7.0,-999.0,63,-99.99,,,0.00,weatherlink.com 1.10,2013-03-25 14:24:00,
2013-03-25 10:39:00,41.9,30.0,29.55,SSE,150,7.0,-999.0,63,-99.99,,,0.00,weatherlink.com 1.10,2013-03-25 14:39:00,
2013-03-25 10:54:00,42.1,30.0,29.54,SSE,154,19.0,-999.0,63,-99.99,,,0.00,weatherlink.com 1.10,2013-03-25 14:54:00,
2013-03-25 11:09:00,42.5,29.0,29.54,ESE,102,7.0,-999.0,59,-99.99,,,0.00,weatherlink.com 1.10,2013-03-25 15:09:00,
2013-03-25 11:24:00,42.9,26.0,29.54,SSE,154,13.0,-999.0,52,-99.99,,,0.00,weatherlink.com 1.10,2013-03-25 15:24:00,
2013-03-25 11:39:00,42.8,25.0,29.54,SE,139,3.0,-999.0,50,-99.99,,,0.00,weatherlink.com 1.10,2013-03-25 15:39:00,
2013-03-25 11:54:00,43.9,25.0,29.54,SSE,167,6.0,-999.0,48,-99.99,,,0.00,weatherlink.com 1.10,2013-03-25 15:54:00,
2013-03-25 12:09:00,43.8,25.0,29.52,SSE,157,11.0,-999.0,47,-99.99,,,0.00,weatherlink.com 1.10,2013-03-25 16:09:00,
2013-03-25 12:24:00,43.8,24.0,29.52,SSW,201,4.0,-999.0,46,-99.99,,,0.00,weatherlink.com 1.10,2013-03-25 16:24:00,
2013-03-25 12:39:00,43.6,24.0,29.51,SE,133,4.0,-999.0,47,-99.99,,,0.00,weatherlink.com 1.10,2013-03-25 16:39:00,
2013-03-25 12:54:00,42.8,24.0,29.50,SSE,160,6.0,-999.0,48,-99.99,,,0.00,weatherlink.com 1.10,2013-03-25 16:54:00,
2013-03-25 13:09:00,43.2,25.0,29.49,East,79,7.0,-999.0,48,-99.99,,,0.00,weatherlink.com 1.10,2013-03-25 17:09:00,
2013-03-25 13:24:00,43.1,24.0,29.49,SSE,160,13.0,-999.0,47,-99.99,,,0.00,weatherlink.com 1.10,2013-03-25 17:24:00,
2013-03-25 13:39:00,42.6,25.0,29.49,SSE,158,6.0,-999.0,50,-99.99,,,0.00,weatherlink.com 1.10,2013-03-25 17:39:00,
2013-03-25 13:54:00,42.6,26.0,29.49,South,170,11.0,-999.0,52,-99.99,,,0.00,weatherlink.com 1.10,2013-03-25 17:54:00,
2013-03-25 14:09:00,42.6,25.0,29.49,SE,137,12.0,-999.0,51,-99.99,,,0.00,weatherlink.com 1.10,2013-03-25 18:09:00,
2013-03-25 14:24:00,42.3,26.0,29.48,South,174,13.0,-999.0,52,-99.99,,,0.00,weatherlink.com 1.10,2013-03-25 18:24:00,
2013-03-25 14:39:00,41.3,26.0,29.47,SSE,157,11.0,-999.0,55,-99.99,,,0.00,weatherlink.com 1.10,2013-03-25 18:39:00,
2013-03-25 14:54:00,41.3,26.0,29.45,SE,144,13.0,-999.0,55,-99.99,,,0.00,weatherlink.com 1.10,2013-03-25 18:54:00,
2013-03-25 15:09:00,41.1,26.0,29.43,SSE,164,6.0,-999.0,56,-99.99,,,0.00,weatherlink.com 1.10,2013-03-25 19:09:00,
2013-03-25 15:24:00,41.1,26.0,29.42,SSE,156,10.0,-999.0,56,-99.99,,,0.00,weatherlink.com 1.10,2013-03-25 19:24:00,
2013-03-25 15:39:00,40.6,26.0,29.40,SE,126,5.0,-999.0,57,-99.99,,,0.00,weatherlink.com 1.10,2013-03-25 19:39:00,
2013-03-25 15:54:00,40.8,26.0,29.40,ESE,109,6.0,-999.0,57,-99.99,,,0.00,weatherlink.com 1.10,2013-03-25 19:54:00,
2013-03-25 16:09:00,40.3,27.0,29.40,East,95,11.0,-999.0,59,-99.99,,,0.00,weatherlink.com 1.10,2013-03-25 20:09:00,
2013-03-25 16:24:00,40.1,27.0,29.40,East,86,11.0,-999.0,61,-99.99,,,0.00,weatherlink.com 1.10,2013-03-25 20:24:00,
2013-03-25 16:39:00,39.8,28.0,29.39,ESE,108,5.0,-999.0,62,-99.99,,,0.00,weatherlink.com 1.10,2013-03-25 20:39:00,
2013-03-25 16:54:00,39.6,28.0,29.40,ESE,103,8.0,-999.0,63,-99.99,,,0.00,weatherlink.com 1.10,2013-03-25 20:54:00,
2013-03-25 17:09:00,39.6,28.0,29.39,ESE,116,6.0,-999.0,63,-99.99,,,0.00,weatherlink.com 1.10,2013-03-25 21:09:00,
2013-03-25 17:24:00,39.5,28.0,29.39,ESE,115,5.0,-999.0,63,-99.99,,,0.00,weatherlink.com 1.10,2013-03-25 21:24:00,
2013-03-25 17:39:00,39.5,28.0,29.39,SSE,150,5.0,-999.0,64,-99.99,,,0.00,weatherlink.com 1.10,2013-03-25 21:39:00,
2013-03-25 17:54:00,39.5,29.0,29.39,SE,132,12.0,-999.0,65,-99.99,,,0.00,weatherlink.com 1.10,2013-03-25 21:54:00,
2013-03-25 18:09:00,39.3,28.0,29.39,East,89,13.0,-999.0,65,-99.99,,,0.00,weatherlink.com 1.10,2013-03-25 22:09:00,
2013-03-25 18:24:00,38.6,30.0,29.39,ENE,77,8.0,-999.0,70,-99.99,,,0.00,weatherlink.com 1.10,2013-03-25 22:24:00,
2013-03-25 18:39:00,37.5,30.0,29.39,SSE,147,5.0,-999.0,75,-99.99,,,0.00,weatherlink.com 1.10,2013-03-25 22:39:00,
2013-03-25 18:54:00,36.9,31.0,29.40,SE,130,4.0,-999.0,78,-99.99,,,0.00,weatherlink.com 1.10,2013-03-25 22:54:00,
2013-03-25 19:09:00,36.9,31.0,29.40,SE,146,5.0,-999.0,79,-99.99,,,0.00,weatherlink.com 1.10,2013-03-25 23:09:00,
2013-03-25 19:24:00,37.3,31.0,29.40,ESE,120,2.0,-999.0,78,-99.99,,,0.00,weatherlink.com 1.10,2013-03-25 23:24:00,
2013-03-25 19:39:00,37.5,32.0,29.40,SE,129,7.0,-999.0,79,-99.99,,,0.00,weatherlink.com 1.10,2013-03-25 23:39:00,
2013-03-25 19:54:00,37.6,32.0,29.40,SSE,154,6.0,-999.0,79,-99.99,,,0.00,weatherlink.com 1.10,2013-03-25 23:54:00,
2013-03-25 20:09:00,35.5,31.0,29.40,ESE,102,9.0,-999.0,84,-99.99,,,0.02,weatherlink.com 1.10,2013-03-26 00:09:00,
2013-03-25 20:24:00,35.5,32.0,29.40,SE,144,6.0,-999.0,87,-99.99,,,0.03,weatherlink.com 1.10,2013-03-26 00:24:00,
2013-03-25 20:39:00,35.9,33.0,29.41,ENE,71,5.0,-999.0,88,-99.99,,,0.03,weatherlink.com 1.10,2013-03-26 00:39:00,
2013-03-25 20:54:00,36.8,33.0,29.40,ESE,115,7.0,-999.0,85,-99.99,,,0.03,weatherlink.com 1.10,2013-03-26 00:54:00,
2013-03-25 21:09:00,37.0,32.0,29.40,ENE,70,14.0,-999.0,82,-99.99,,,0.03,weatherlink.com 1.10,2013-03-26 01:09:00,
2013-03-25 21:24:00,37.2,31.0,29.40,ENE,67,11.0,-999.0,78,-99.99,,,0.03,weatherlink.com 1.10,2013-03-26 01:24:00,
2013-03-25 21:39:00,37.6,31.0,29.40,NE,53,2.0,-999.0,76,-99.99,,,0.04,weatherlink.com 1.10,2013-03-26 01:39:00,
2013-03-25 21:54:00,38.0,30.0,29.40,SSE,160,8.0,-999.0,74,-99.99,,,0.04,weatherlink.com 1.10,2013-03-26 01:54:00,
2013-03-25 22:09:00,38.2,30.0,29.40,SE,137,5.0,-999.0,73,-99.99,,,0.04,weatherlink.com 1.10,2013-03-26 02:09:00,
2013-03-25 22:24:00,38.3,30.0,29.39,East,94,0.0,-999.0,73,-99.99,,,0.04,weatherlink.com 1.10,2013-03-26 02:24:00,
2013-03-25 22:39:00,38.3,30.0,29.39,NE,54,7.0,-999.0,72,-99.99,,,0.04,weatherlink.com 1.10,2013-03-26 02:39:00,
2013-03-25 22:54:00,38.3,30.0,29.39,ENE,68,11.0,-999.0,71,-99.99,,,0.04,weatherlink.com 1.10,2013-03-26 02:54:00,
2013-03-25 23:09:00,38.5,30.0,29.38,SE,136,6.0,-999.0,71,-99.99,,,0.04,weatherlink.com 1.10,2013-03-26 03:09:00,
2013-03-25 23:24:00,38.5,30.0,29.38,NE,53,1.0,-999.0,71,-99.99,,,0.04,weatherlink.com 1.10,2013-03-26 03:24:00,
2013-03-25 23:39:00,38.5,30.0,29.38,ESE,123,5.0,-999.0,71,-99.99,,,0.04,weatherlink.com 1.10,2013-03-26 03:39:00,
2013-03-25 23:54:00,38.6,30.0,29.38,SE,125,5.0,-999.0,72,-99.99,,,0.04,weatherlink.com 1.10,2013-03-26 03:54:00,